createdAt,value
2017-06-22T00:01:57.895Z,83.40
2017-06-22T00:04:26.274Z,83.40
2017-06-22T00:06:54.709Z,82.70
2017-06-22T00:09:23.099Z,82.10
2017-06-22T00:11:51.503Z,82.50
2017-06-22T00:14:19.907Z,82.10
2017-06-22T00:16:48.306Z,82.20
2017-06-22T00:19:16.721Z,81.10
2017-06-22T00:21:45.109Z,81.40
2017-06-22T00:24:14.280Z,80.40
2017-06-22T00:26:42.683Z,80.50
2017-06-22T00:29:11.838Z,80.60
2017-06-22T00:31:40.252Z,80.50
2017-06-22T00:34:08.641Z,79.90
2017-06-22T00:36:37.034Z,79.40
2017-06-22T00:39:04.749Z,79.20
2017-06-22T00:41:33.143Z,78.80
2017-06-22T00:44:01.558Z,79.70
2017-06-22T00:46:29.949Z,78.80
2017-06-22T00:48:58.337Z,78.50
2017-06-22T00:51:26.741Z,78.80
2017-06-22T00:53:55.129Z,78.70
2017-06-22T00:56:24.315Z,79.00
2017-06-22T00:58:52.707Z,79.60
2017-06-22T01:01:21.658Z,78.80
2017-06-22T01:03:50.055Z,78.90
2017-06-22T01:06:18.441Z,78.80
2017-06-22T01:08:46.862Z,78.80
2017-06-22T01:11:15.247Z,78.60
2017-06-22T01:13:43.642Z,78.40
2017-06-22T01:16:12.046Z,78.50
2017-06-22T01:18:40.432Z,78.30
2017-06-22T01:21:08.862Z,78.00
2017-06-22T01:23:37.242Z,77.80
2017-06-22T01:26:05.645Z,77.70
2017-06-22T01:28:34.046Z,77.30
2017-06-22T01:31:02.435Z,77.10
2017-06-22T01:33:30.857Z,76.70
2017-06-22T01:35:59.274Z,76.60
2017-06-22T01:38:27.663Z,76.30
2017-06-22T01:40:56.053Z,76.30
2017-06-22T01:43:24.686Z,76.00
2017-06-22T01:45:53.077Z,75.90
2017-06-22T01:48:21.121Z,75.80
2017-06-22T01:50:49.181Z,75.90
2017-06-22T01:53:17.240Z,75.80
2017-06-22T01:55:46.406Z,76.50
2017-06-22T01:58:14.813Z,75.80
2017-06-22T02:00:43.969Z,75.80
2017-06-22T02:03:12.349Z,75.80
2017-06-22T02:05:40.745Z,75.80
2017-06-22T02:08:09.142Z,75.60
2017-06-22T02:10:38.317Z,75.80
2017-06-22T02:13:06.706Z,75.80
2017-06-22T02:15:35.090Z,75.90
2017-06-22T02:18:04.263Z,75.90
2017-06-22T02:20:32.670Z,75.80
2017-06-22T02:23:01.867Z,76.50
2017-06-22T02:25:31.009Z,76.60
2017-06-22T02:27:59.426Z,76.40
2017-06-22T02:30:27.817Z,76.50
2017-06-22T02:32:56.969Z,77.40
2017-06-22T02:35:25.387Z,76.60
2017-06-22T02:37:54.569Z,77.20
2017-06-22T02:40:22.982Z,76.70
2017-06-22T02:42:51.378Z,76.80
2017-06-22T02:45:19.770Z,77.30
2017-06-22T02:47:48.209Z,77.70
2017-06-22T02:50:16.609Z,77.80
2017-06-22T02:52:44.998Z,77.90
2017-06-22T02:55:13.433Z,78.20
2017-06-22T02:57:42.602Z,78.40
2017-06-22T03:00:11.007Z,78.30
2017-06-22T03:02:39.399Z,78.30
2017-06-22T03:05:07.801Z,78.50
2017-06-22T03:07:56.227Z,78.50
2017-06-22T03:10:24.606Z,78.70
2017-06-22T03:12:53.010Z,78.70
2017-06-22T03:15:21.400Z,78.20
2017-06-22T03:17:49.790Z,77.50
2017-06-22T03:20:18.192Z,77.60
2017-06-22T03:22:46.583Z,77.10
2017-06-22T03:25:15.762Z,77.00
2017-06-22T03:27:44.181Z,77.00
2017-06-22T03:30:12.585Z,77.30
2017-06-22T03:32:40.994Z,77.20
2017-06-22T03:35:09.387Z,76.70
2017-06-22T03:37:37.797Z,76.30
2017-06-22T03:40:06.205Z,75.60
2017-06-22T03:42:34.595Z,75.10
2017-06-22T03:45:03.001Z,74.40
2017-06-22T03:47:31.388Z,74.30
2017-06-22T03:49:59.798Z,72.30
2017-06-22T03:52:28.201Z,71.80
2017-06-22T03:54:56.601Z,71.70
2017-06-22T03:57:25.006Z,71.10
2017-06-22T03:59:53.082Z,69.70
2017-06-22T04:02:22.270Z,68.50
2017-06-22T04:04:50.656Z,68.40
2017-06-22T04:07:19.046Z,67.90
2017-06-22T04:09:47.461Z,68.00
2017-06-22T04:12:15.835Z,67.30
2017-06-22T04:14:44.254Z,66.80
2017-06-22T04:17:12.646Z,66.70
2017-06-22T04:19:41.840Z,66.00
2017-06-22T04:22:10.255Z,65.90
2017-06-22T04:24:38.682Z,65.60
2017-06-22T04:27:07.083Z,65.40
2017-06-22T04:29:35.461Z,65.40
2017-06-22T04:32:03.871Z,65.30
2017-06-22T04:34:32.290Z,65.20
2017-06-22T04:37:01.106Z,65.00
2017-06-22T04:39:29.538Z,65.10
2017-06-22T04:41:57.941Z,65.10
2017-06-22T04:44:27.107Z,65.60
2017-06-22T04:46:55.515Z,64.90
2017-06-22T04:49:24.669Z,65.70
2017-06-22T04:51:53.103Z,65.40
2017-06-22T04:54:22.261Z,65.20
2017-06-22T04:56:50.697Z,65.10
2017-06-22T04:59:19.110Z,64.90
2017-06-22T05:01:47.490Z,64.00
2017-06-22T05:04:15.893Z,63.90
2017-06-22T05:06:44.281Z,63.50
2017-06-22T05:09:12.684Z,63.70
2017-06-22T05:11:41.089Z,64.00
2017-06-22T05:14:09.488Z,63.20
2017-06-22T05:16:37.917Z,63.40
2017-06-22T05:19:06.346Z,62.70
2017-06-22T05:21:34.752Z,62.20
2017-06-22T05:24:03.996Z,62.80
2017-06-22T05:26:32.403Z,63.40
2017-06-22T05:29:00.817Z,62.90
2017-06-22T05:31:29.976Z,62.80
2017-06-22T05:33:58.376Z,62.80
2017-06-22T05:36:26.780Z,62.70
2017-06-22T05:38:55.014Z,62.30
2017-06-22T05:41:23.424Z,62.60
2017-06-22T05:43:51.844Z,62.40
2017-06-22T05:46:20.247Z,61.90
2017-06-22T05:48:48.653Z,61.90
2017-06-22T05:51:17.836Z,62.00
2017-06-22T05:53:46.043Z,62.00
2017-06-22T05:56:14.477Z,61.00
2017-06-22T05:58:42.870Z,61.70
2017-06-22T06:01:12.055Z,60.40
2017-06-22T06:03:40.439Z,60.40
2017-06-22T06:06:08.833Z,60.40
2017-06-22T06:08:38.013Z,59.70
2017-06-22T06:11:06.404Z,60.30
2017-06-22T06:13:35.581Z,59.50
2017-06-22T06:16:03.985Z,58.80
2017-06-22T06:18:33.214Z,59.10
2017-06-22T06:21:01.625Z,59.10
2017-06-22T06:23:30.022Z,58.70
2017-06-22T06:25:58.433Z,58.30
2017-06-22T06:28:26.854Z,58.20
2017-06-22T06:30:55.242Z,58.50
2017-06-22T06:33:23.654Z,58.40
2017-06-22T06:35:52.816Z,57.80
2017-06-22T06:38:21.048Z,58.30
2017-06-22T06:40:49.431Z,57.10
2017-06-22T06:43:17.817Z,56.50
2017-06-22T06:45:46.238Z,56.40
2017-06-22T06:48:14.626Z,55.60
2017-06-22T06:50:43.829Z,56.10
2017-06-22T06:53:12.980Z,55.80
2017-06-22T06:55:41.380Z,55.60
2017-06-22T06:58:09.783Z,54.60
2017-06-22T07:00:38.945Z,53.80
2017-06-22T07:03:07.358Z,53.80
2017-06-22T07:05:35.756Z,52.90
2017-06-22T07:08:04.154Z,52.20
2017-06-22T07:10:32.568Z,52.60
2017-06-22T07:13:00.991Z,52.30
2017-06-22T07:15:29.415Z,51.40
2017-06-22T07:17:57.822Z,51.90
2017-06-22T07:20:26.974Z,52.00
2017-06-22T07:22:55.382Z,51.80
2017-06-22T07:25:23.793Z,50.30
2017-06-22T07:27:52.206Z,49.80
2017-06-22T07:30:20.603Z,50.60
2017-06-22T07:32:48.997Z,50.00
2017-06-22T07:35:17.386Z,49.60
2017-06-22T07:37:46.541Z,51.30
2017-06-22T07:40:14.960Z,50.60
2017-06-22T07:42:43.366Z,49.60
2017-06-22T07:45:11.756Z,49.10
2017-06-22T07:47:40.160Z,48.90
2017-06-22T07:50:08.550Z,49.00
2017-06-22T07:52:36.955Z,48.50
2017-06-22T07:55:06.123Z,48.50
2017-06-22T07:57:34.513Z,48.50
2017-06-22T08:00:02.916Z,47.70
2017-06-22T08:02:32.089Z,47.50
2017-06-22T08:05:01.287Z,48.10
2017-06-22T08:07:30.440Z,49.20
2017-06-22T08:09:58.858Z,49.20
2017-06-22T08:12:28.061Z,47.60
2017-06-22T08:14:57.237Z,48.80
2017-06-22T08:17:25.649Z,48.30
2017-06-22T08:19:54.817Z,48.80
2017-06-22T08:22:23.230Z,48.80
2017-06-22T08:24:51.637Z,50.20
2017-06-22T08:27:20.043Z,49.50
2017-06-22T08:29:48.467Z,49.20
2017-06-22T08:32:16.865Z,49.00
2017-06-22T08:34:45.271Z,48.20
2017-06-22T08:37:13.689Z,49.00
2017-06-22T08:39:42.847Z,47.80
2017-06-22T08:42:11.264Z,47.70
2017-06-22T08:44:40.419Z,48.00
2017-06-22T08:47:08.796Z,48.00
2017-06-22T08:49:37.216Z,47.60
2017-06-22T08:52:06.369Z,47.80
2017-06-22T08:54:34.797Z,47.80
2017-06-22T08:57:03.962Z,47.20
2017-06-22T08:59:32.361Z,47.10
2017-06-22T09:02:00.765Z,45.70
2017-06-22T09:04:29.140Z,45.80
2017-06-22T09:06:57.575Z,46.00
2017-06-22T09:09:26.007Z,46.50
2017-06-22T09:11:54.413Z,46.00
2017-06-22T09:14:22.803Z,46.60
2017-06-22T09:16:51.193Z,46.60
2017-06-22T09:19:19.610Z,46.10
2017-06-22T09:21:48.001Z,46.00
2017-06-22T09:24:16.404Z,45.60
2017-06-22T09:26:44.796Z,47.40
2017-06-22T09:29:13.208Z,47.20
2017-06-22T09:31:42.429Z,46.60
2017-06-22T09:34:10.861Z,46.60
2017-06-22T09:36:39.265Z,46.80
2017-06-22T09:39:07.670Z,47.00
2017-06-22T09:41:36.064Z,47.90
2017-06-22T09:44:04.507Z,48.10
2017-06-22T09:46:32.914Z,48.10
2017-06-22T09:49:01.326Z,46.40
2017-06-22T09:51:29.721Z,46.60
2017-06-22T09:53:58.151Z,46.80
2017-06-22T09:56:26.590Z,47.10
2017-06-22T09:58:55.004Z,48.10
2017-06-22T10:01:23.437Z,47.10
2017-06-22T10:03:52.622Z,48.00
2017-06-22T10:06:21.026Z,47.60
2017-06-22T10:08:49.541Z,47.20
2017-06-22T10:11:18.128Z,47.40
2017-06-22T10:13:46.516Z,47.80
2017-06-22T10:16:14.935Z,47.70
2017-06-22T10:18:43.413Z,47.10
2017-06-22T10:21:11.817Z,46.00
2017-06-22T10:23:40.210Z,46.80
2017-06-22T10:26:08.597Z,46.80
2017-06-22T10:28:37.190Z,46.50
2017-06-22T10:31:05.594Z,46.80
2017-06-22T10:33:34.004Z,46.60
2017-06-22T10:36:03.172Z,46.70
2017-06-22T10:38:31.587Z,46.70
2017-06-22T10:40:59.984Z,45.60
2017-06-22T10:43:28.386Z,45.30
2017-06-22T10:45:56.791Z,45.30
2017-06-22T10:48:25.181Z,45.20
2017-06-22T10:50:53.600Z,44.80
2017-06-22T10:53:21.998Z,45.70
2017-06-22T10:55:50.422Z,44.70
2017-06-22T10:58:18.947Z,44.50
2017-06-22T11:00:47.337Z,45.70
2017-06-22T11:03:15.794Z,44.30
2017-06-22T11:05:44.221Z,43.80
2017-06-22T11:08:12.607Z,43.90
2017-06-22T11:10:41.787Z,43.20
2017-06-22T11:13:10.181Z,43.20
2017-06-22T11:15:38.584Z,42.40
2017-06-22T11:18:06.990Z,43.10
2017-06-22T11:20:35.381Z,43.20
2017-06-22T11:23:03.800Z,43.00
2017-06-22T11:25:32.976Z,41.80
2017-06-22T11:28:01.371Z,41.80
2017-06-22T11:30:29.778Z,41.80
2017-06-22T11:32:58.183Z,41.80
2017-06-22T11:35:26.603Z,41.90
2017-06-22T11:37:55.009Z,40.50
2017-06-22T11:40:23.408Z,42.10
2017-06-22T11:42:51.800Z,40.80
2017-06-22T11:45:20.187Z,40.30
2017-06-22T11:47:48.606Z,39.90
2017-06-22T11:50:17.770Z,40.20
2017-06-22T11:52:46.179Z,40.10
2017-06-22T11:55:15.351Z,40.70
2017-06-22T11:57:43.767Z,40.60
2017-06-22T12:00:12.172Z,40.80
2017-06-22T12:02:40.562Z,39.50
2017-06-22T12:05:08.952Z,40.00
2017-06-22T12:07:37.364Z,39.40
2017-06-22T12:10:06.514Z,39.60
2017-06-22T12:12:34.930Z,39.50
2017-06-22T12:15:03.326Z,37.50
2017-06-22T12:17:31.721Z,37.10
2017-06-22T12:20:00.125Z,39.40
2017-06-22T12:22:28.515Z,39.10
2017-06-22T12:24:56.941Z,39.80
2017-06-22T12:27:25.348Z,38.10
2017-06-22T12:29:53.752Z,38.00
2017-06-22T12:32:22.193Z,38.60
2017-06-22T12:34:50.582Z,39.40
2017-06-22T12:37:19.026Z,40.60
2017-06-22T12:39:47.421Z,40.70
2017-06-22T12:42:15.819Z,42.70
2017-06-22T12:44:44.238Z,44.50
2017-06-22T12:47:12.642Z,46.30
2017-06-22T12:49:41.051Z,47.60
2017-06-22T12:52:09.441Z,48.10
2017-06-22T12:54:37.829Z,48.40
2017-06-22T12:57:06.229Z,48.80
2017-06-22T12:59:34.641Z,49.20
2017-06-22T13:02:03.014Z,50.30
2017-06-22T13:04:31.426Z,49.50
2017-06-22T13:06:59.840Z,50.10
2017-06-22T13:09:28.239Z,49.20
2017-06-22T13:11:57.395Z,45.20
2017-06-22T13:14:25.801Z,45.20
2017-06-22T13:16:54.966Z,47.80
2017-06-22T13:19:23.357Z,47.60
2017-06-22T13:21:51.759Z,48.10
2017-06-22T13:24:20.914Z,50.80
2017-06-22T13:26:49.332Z,50.80
2017-06-22T13:29:18.489Z,50.50
2017-06-22T13:31:46.887Z,50.50
2017-06-22T13:34:15.300Z,51.50
2017-06-22T13:36:43.680Z,49.00
2017-06-22T13:39:12.105Z,49.10
2017-06-22T13:41:40.493Z,50.20
2017-06-22T13:44:08.930Z,51.20
2017-06-22T13:46:37.341Z,51.20
2017-06-22T13:49:05.721Z,49.80
2017-06-22T13:51:34.139Z,50.10
2017-06-22T13:54:02.547Z,51.00
2017-06-22T13:56:30.943Z,52.50
2017-06-22T13:58:59.363Z,52.50
2017-06-22T14:01:28.546Z,51.70
2017-06-22T14:03:56.970Z,51.10
2017-06-22T14:06:25.360Z,51.10
2017-06-22T14:08:53.818Z,52.30
2017-06-22T14:11:22.243Z,52.20
2017-06-22T14:13:50.656Z,50.60
2017-06-22T14:16:19.885Z,50.80
2017-06-22T14:18:48.290Z,50.80
2017-06-22T14:21:16.711Z,50.40
2017-06-22T14:23:45.121Z,49.40
2017-06-22T14:26:13.376Z,49.60
2017-06-22T14:28:42.541Z,49.50
2017-06-22T14:31:10.918Z,49.50
2017-06-22T14:33:39.333Z,48.50
2017-06-22T14:36:07.755Z,48.60
2017-06-22T14:38:36.174Z,48.80
2017-06-22T14:41:04.602Z,47.50
2017-06-22T14:43:33.002Z,46.10
2017-06-22T14:46:01.402Z,47.20
2017-06-22T14:48:29.805Z,48.20
2017-06-22T14:50:58.205Z,47.60
2017-06-22T14:53:26.618Z,47.70
2017-06-22T14:55:55.022Z,46.70
2017-06-22T14:58:23.423Z,45.50
2017-06-22T15:00:51.857Z,46.10
2017-06-22T15:03:20.257Z,46.50
2017-06-22T15:05:48.676Z,46.50
2017-06-22T15:08:17.057Z,46.30
2017-06-22T15:10:45.476Z,46.50
2017-06-22T15:13:13.909Z,46.80
2017-06-22T15:15:42.292Z,46.90
2017-06-22T15:18:10.706Z,45.70
2017-06-22T15:20:39.104Z,45.30
2017-06-22T15:23:07.506Z,46.00
2017-06-22T15:25:35.721Z,46.50
2017-06-22T15:28:04.110Z,46.00
2017-06-22T15:30:32.557Z,46.10
2017-06-22T15:33:00.937Z,46.10
2017-06-22T15:35:29.341Z,47.80
2017-06-22T15:37:57.746Z,47.20
2017-06-22T15:40:26.148Z,47.80
2017-06-22T15:42:54.569Z,47.90
2017-06-22T15:45:22.971Z,49.60
2017-06-22T15:47:51.381Z,49.40
2017-06-22T15:50:19.813Z,49.80
2017-06-22T15:52:48.229Z,50.20
2017-06-22T15:55:16.659Z,50.60
2017-06-22T15:57:45.053Z,50.80
2017-06-22T16:00:13.097Z,51.50
2017-06-22T16:02:41.654Z,51.80
2017-06-22T16:05:10.146Z,51.50
2017-06-22T16:07:38.550Z,51.60
2017-06-22T16:10:06.994Z,51.70
2017-06-22T16:12:35.389Z,52.10
2017-06-22T16:15:03.798Z,52.80
2017-06-22T16:17:32.185Z,52.30
2017-06-22T16:20:00.619Z,52.60
2017-06-22T16:22:29.097Z,51.80
2017-06-22T16:24:57.488Z,52.10
2017-06-22T16:27:25.890Z,52.20
2017-06-22T16:29:54.281Z,52.90
2017-06-22T16:32:23.574Z,53.70
2017-06-22T16:34:51.991Z,53.60
2017-06-22T16:37:20.388Z,53.20
2017-06-22T16:39:48.800Z,53.20
2017-06-22T16:42:17.233Z,53.30
2017-06-22T16:44:45.639Z,53.20
2017-06-22T16:47:14.050Z,53.80
2017-06-22T16:49:43.219Z,54.20
2017-06-22T16:52:11.675Z,54.10
2017-06-22T16:54:40.108Z,54.80
2017-06-22T16:57:08.513Z,54.80
2017-06-22T16:59:37.011Z,54.50
2017-06-22T17:02:05.413Z,54.70
2017-06-22T17:04:33.819Z,54.40
2017-06-22T17:07:02.222Z,54.60
2017-06-22T17:09:31.415Z,52.40
2017-06-22T17:12:00.580Z,50.80
2017-06-22T17:14:28.965Z,50.90
2017-06-22T17:16:57.382Z,50.90
2017-06-22T17:19:25.787Z,50.00
2017-06-22T17:21:54.207Z,50.10
2017-06-22T17:24:22.695Z,49.10
2017-06-22T17:26:51.945Z,49.50
2017-06-22T17:29:20.614Z,49.40
2017-06-22T17:31:49.008Z,49.60
2017-06-22T17:34:17.474Z,50.20
2017-06-22T17:36:45.862Z,50.10
2017-06-22T17:39:14.085Z,50.50
2017-06-22T17:41:43.251Z,51.90
2017-06-22T17:44:11.649Z,51.80
2017-06-22T17:46:40.051Z,52.90
2017-06-22T17:49:08.440Z,54.30
2017-06-22T17:51:36.936Z,55.40
2017-06-22T17:54:05.392Z,56.30
2017-06-22T17:56:33.796Z,57.50
2017-06-22T17:59:02.206Z,58.80
2017-06-22T18:01:30.626Z,59.50
2017-06-22T18:03:59.030Z,60.50
2017-06-22T18:06:27.449Z,61.00
2017-06-22T18:08:55.863Z,61.60
2017-06-22T18:11:24.273Z,62.00
2017-06-22T18:13:52.663Z,64.00
2017-06-22T18:16:21.121Z,65.40
2017-06-22T18:18:49.532Z,65.80
2017-06-22T18:21:18.237Z,67.40
2017-06-22T18:23:46.699Z,67.90
2017-06-22T18:26:14.911Z,67.70
2017-06-22T18:28:43.323Z,67.30
2017-06-22T18:31:11.732Z,67.00
2017-06-22T18:33:40.185Z,65.80
2017-06-22T18:36:08.601Z,66.10
2017-06-22T18:38:37.015Z,65.50
2017-06-22T18:41:05.425Z,66.10
2017-06-22T18:43:33.830Z,65.70
2017-06-22T18:46:02.277Z,65.90
2017-06-22T18:48:30.657Z,65.80
2017-06-22T18:50:59.074Z,65.80
2017-06-22T18:53:27.495Z,64.40
2017-06-22T18:55:55.929Z,64.40
2017-06-22T18:58:24.340Z,62.90
2017-06-22T19:00:53.509Z,61.00
2017-06-22T19:03:21.754Z,60.80
2017-06-22T19:05:50.153Z,59.90
2017-06-22T19:08:18.580Z,60.70
2017-06-22T19:10:48.632Z,61.70
2017-06-22T19:13:16.857Z,61.90
2017-06-22T19:15:46.044Z,62.70
2017-06-22T19:18:14.436Z,62.60
2017-06-22T19:20:43.708Z,63.20
2017-06-22T19:23:12.922Z,63.10
2017-06-22T19:25:41.333Z,63.00
2017-06-22T19:28:09.566Z,63.90
2017-06-22T19:30:38.092Z,63.60
2017-06-22T19:33:06.487Z,64.10
2017-06-22T19:35:34.958Z,63.20
2017-06-22T19:38:03.362Z,61.90
2017-06-22T19:40:31.790Z,62.00
2017-06-22T19:43:00.187Z,62.50
2017-06-22T19:45:28.592Z,62.30
2017-06-22T19:47:56.828Z,62.50
2017-06-22T19:50:25.218Z,63.00
2017-06-22T19:52:53.637Z,63.70
2017-06-22T19:55:22.051Z,64.00
2017-06-22T19:57:50.433Z,64.60
2017-06-22T20:00:19.429Z,65.50
2017-06-22T20:02:47.841Z,66.40
2017-06-22T20:05:16.284Z,66.30
2017-06-22T20:07:44.709Z,66.70
2017-06-22T20:10:13.110Z,66.80
2017-06-22T20:12:41.526Z,67.10
2017-06-22T20:15:09.929Z,67.20
2017-06-22T20:17:38.341Z,67.00
2017-06-22T20:20:06.744Z,66.70
2017-06-22T20:22:35.911Z,67.50
2017-06-22T20:25:04.301Z,67.40
2017-06-22T20:27:33.480Z,67.40
2017-06-22T20:30:01.894Z,67.40
2017-06-22T20:32:30.130Z,68.00
2017-06-22T20:34:58.536Z,68.30
2017-06-22T20:37:26.925Z,68.40
2017-06-22T20:39:55.313Z,68.50
2017-06-22T20:42:23.748Z,68.30
2017-06-22T20:44:52.159Z,68.30
2017-06-22T20:47:20.556Z,68.50
2017-06-22T20:49:48.976Z,68.70
2017-06-22T20:52:17.380Z,69.20
2017-06-22T20:54:46.562Z,69.40
2017-06-22T20:57:14.950Z,69.40
2017-06-22T20:59:43.380Z,69.70
2017-06-22T21:02:11.819Z,70.00
2017-06-22T21:04:40.212Z,70.10
2017-06-22T21:07:08.642Z,70.10
2017-06-22T21:09:37.031Z,70.50
2017-06-22T21:12:05.420Z,70.50
2017-06-22T21:14:34.594Z,70.80
2017-06-22T21:17:02.973Z,71.50
2017-06-22T21:19:31.401Z,71.00
2017-06-22T21:21:59.804Z,71.10
2017-06-22T21:24:28.215Z,71.30
2017-06-22T21:26:56.627Z,71.50
2017-06-22T21:29:25.135Z,72.00
2017-06-22T21:31:53.607Z,72.10
2017-06-22T21:34:22.095Z,72.30
2017-06-22T21:36:50.470Z,72.20
2017-06-22T21:39:18.877Z,72.30
2017-06-22T21:41:47.261Z,72.40
2017-06-22T21:44:15.668Z,72.50
2017-06-22T21:46:44.905Z,72.70
2017-06-22T21:49:13.299Z,72.70
2017-06-22T21:51:41.699Z,72.30
2017-06-22T21:54:10.092Z,72.10
2017-06-22T21:56:38.521Z,72.50
2017-06-22T21:59:06.955Z,72.70
2017-06-22T22:01:35.368Z,72.90
2017-06-22T22:04:03.772Z,72.90
2017-06-22T22:06:32.160Z,73.40
2017-06-22T22:09:00.577Z,73.60
2017-06-22T22:11:28.951Z,73.40
2017-06-22T22:13:57.469Z,73.50
2017-06-22T22:16:25.891Z,73.70
2017-06-22T22:18:54.285Z,74.00
2017-06-22T22:21:23.479Z,74.40
2017-06-22T22:23:52.647Z,74.50
2017-06-22T22:26:21.101Z,74.50
2017-06-22T22:28:49.539Z,74.60
2017-06-22T22:31:17.953Z,74.80
2017-06-22T22:33:46.357Z,74.60
2017-06-22T22:36:14.747Z,74.60
2017-06-22T22:38:43.135Z,74.80
2017-06-22T22:41:11.573Z,74.70
2017-06-22T22:43:40.049Z,74.90
2017-06-22T22:46:08.453Z,74.80
2017-06-22T22:48:36.826Z,75.00
2017-06-22T22:51:05.216Z,75.40
2017-06-22T22:53:33.629Z,75.70
2017-06-22T22:56:02.009Z,75.90
2017-06-22T22:58:30.460Z,76.00
2017-06-22T23:00:58.844Z,76.30
2017-06-22T23:03:27.239Z,77.30
2017-06-22T23:05:55.634Z,76.50
2017-06-22T23:08:24.008Z,76.70
2017-06-22T23:10:52.427Z,76.70
2017-06-22T23:13:20.817Z,76.80
2017-06-22T23:15:49.208Z,76.80
2017-06-22T23:18:17.609Z,76.90
2017-06-22T23:20:45.998Z,77.30
2017-06-22T23:23:14.405Z,77.30
2017-06-22T23:25:42.796Z,76.90
2017-06-22T23:28:11.182Z,77.40
2017-06-22T23:30:39.581Z,77.80
2017-06-22T23:33:08.741Z,77.90
2017-06-22T23:35:36.818Z,77.60
2017-06-22T23:38:05.223Z,77.80
2017-06-22T23:40:33.595Z,78.10
2017-06-22T23:43:01.985Z,78.10
2017-06-22T23:45:31.137Z,79.30
2017-06-22T23:47:59.538Z,78.70
2017-06-22T23:50:27.916Z,78.90
2017-06-22T23:52:56.297Z,79.10
2017-06-22T23:55:24.698Z,79.60
2017-06-22T23:57:53.853Z,79.50
